Terminal Aerodrome Forecast
Issued by NWS St Louis, MO

Home | Current Version | Previous Version | Text Only | Print | Product List | Glossary On
Versions: 1 2 3 4 5 6 7 8 9 10 11 12 13 14 15 16 17 18 19 20 21 22 23 24 25 26 27 28 29
000
FTUS43 KLSX 282300
TAFSTL
TAF
KSTL 282320Z 2900/3006 12008KT P6SM SKC
     FM291500 18014G22KT P6SM SCT050 BKN100
     FM291900 19012G20KT P6SM VCSH BKN050
     FM292300 26010KT P6SM SCT050 SCT100=

USA.gov is the U.S. government's official web portal to all federal, state and local government web resources and services.